Time;durP1;ratioP1;P1;durP2;ratioP2;P2;SDS_P1;SDS_P2;PMS_P1;PMS_P2;Temp;Humidity;BMP_temperature;BMP_pressure;BME280_temperature;BME280_humidity;BME280_pressure;Samples;Min_cycle;Max_cycle;Signal;HPM_P1;HPM_P2
2022/09/30 00:02:11;;;;;;;;;;;10.30;90.00;;;;;;5028696;28;19917;-71
2022/09/30 00:04:36;;;;;;;;;;;10.30;90.00;;;;;;5042179;28;19917;-70
2022/09/30 00:07:02;;;;;;;;;;;10.30;90.00;;;;;;5044925;28;19924;-70
2022/09/30 00:09:27;;;;;;;;;;;10.30;90.00;;;;;;5042590;28;19954;-70
2022/09/30 00:11:53;;;;;;;;;;;10.30;90.00;;;;;;5045198;28;19955;-70
2022/09/30 00:14:20;;;;;;;;;;;10.30;90.00;;;;;;5042367;28;19967;-70
2022/09/30 00:16:45;;;;;;;;;;;10.30;90.00;;;;;;5045202;28;19919;-70
2022/09/30 00:19:11;;;;;;;;;;;10.20;90.00;;;;;;5042161;28;19920;-70
2022/09/30 00:21:36;;;;;;;;;;;10.20;90.00;;;;;;5044639;28;20658;-70
2022/09/30 00:24:03;;;;;;;;;;;10.20;90.00;;;;;;5042667;28;19926;-70
2022/09/30 00:26:29;;;;;;;;;;;10.20;90.00;;;;;;5042360;28;19925;-70
2022/09/30 00:28:57;;;;;;;;;;;10.20;90.00;;;;;;5043351;28;19921;-70
2022/09/30 00:31:23;;;;;;;;;;;10.20;90.00;;;;;;5041801;28;19996;-70
2022/09/30 00:34:07;;;;;;;;;;;10.20;90.00;;;;;;5044241;28;20465;-70
2022/09/30 00:36:36;;;;;;;;;;;10.10;90.00;;;;;;5042733;28;19991;-70
2022/09/30 00:39:03;;;;;;;;;;;10.10;90.00;;;;;;5044650;28;19971;-71
2022/09/30 00:41:28;;;;;;;;;;;10.10;90.00;;;;;;5024447;28;19917;-70
2022/09/30 00:43:54;;;;;;;;;;;10.10;90.00;;;;;;5044498;28;19913;-70
2022/09/30 00:46:25;;;;;;;;;;;10.10;90.00;;;;;;5042146;28;19930;-70
2022/09/30 00:48:52;;;;;;;;;;;10.10;90.00;;;;;;5046463;28;19991;-70
2022/09/30 00:51:40;;;;;;;;;;;10.10;90.00;;;;;;5042921;28;19923;-70
2022/09/30 00:54:08;;;;;;;;;;;10.10;90.00;;;;;;5044398;28;19909;-70
2022/09/30 00:56:38;;;;;;;;;;;10.00;90.00;;;;;;5042241;28;19917;-70
2022/09/30 00:59:05;;;;;;;;;;;10.10;90.00;;;;;;5044868;28;19916;-70
2022/09/30 01:01:31;;;;;;;;;;;10.00;90.00;;;;;;5041501;28;19916;-70
2022/09/30 01:04:02;;;;;;;;;;;10.00;90.00;;;;;;5042210;28;20029;-70
2022/09/30 01:06:27;;;;;;;;;;;10.00;90.00;;;;;;5041718;28;20742;-70
2022/09/30 01:08:54;;;;;;;;;;;10.00;90.00;;;;;;5044154;28;19999;-71
2022/09/30 01:11:19;;;;;;;;;;;10.00;90.00;;;;;;5041817;28;19927;-70
2022/09/30 01:13:47;;;;;;;;;;;10.00;90.00;;;;;;5047532;28;19923;-70
2022/09/30 01:16:15;;;;;;;;;;;9.90;89.90;;;;;;5047045;28;19913;-70
2022/09/30 01:18:59;;;;;;;;;;;10.00;90.00;;;;;;5047155;28;19921;-71
2022/09/30 01:21:39;;;;;;;;;;;10.00;89.80;;;;;;5046278;28;20377;-70
2022/09/30 01:24:17;;;;;;;;;;;10.00;89.60;;;;;;5050932;28;19928;-70
2022/09/30 01:26:45;;;;;;;;;;;10.00;89.40;;;;;;5045751;28;19923;-71
2022/09/30 01:29:34;;;;;;;;;;;10.10;89.40;;;;;;5044365;28;19982;-70
2022/09/30 01:31:59;;;;;;;;;;;10.00;89.30;;;;;;5011538;28;19920;-71
2022/09/30 01:34:25;;;;;;;;;;;10.00;89.30;;;;;;5047294;28;20729;-70
2022/09/30 01:36:56;;;;;;;;;;;10.00;89.30;;;;;;5047755;28;19909;-70
2022/09/30 01:39:27;;;;;;;;;;;10.00;89.30;;;;;;5047726;28;19921;-70
2022/09/30 01:42:09;;;;;;;;;;;10.00;89.30;;;;;;5047386;28;20281;-70
2022/09/30 01:44:34;;;;;;;;;;;10.00;89.20;;;;;;5044233;28;19920;-70
2022/09/30 01:47:03;;;;;;;;;;;10.00;89.20;;;;;;5047433;28;20031;-70
2022/09/30 01:49:29;;;;;;;;;;;10.00;89.20;;;;;;5037912;28;20609;-70
2022/09/30 01:51:57;;;;;;;;;;;10.00;89.20;;;;;;5048710;28;19923;-70
2022/09/30 01:54:36;;;;;;;;;;;10.00;89.10;;;;;;5044867;28;19917;-70
2022/09/30 01:57:17;;;;;;;;;;;10.00;89.20;;;;;;5043161;28;20353;-70
2022/09/30 01:59:49;;;;;;;;;;;9.90;89.10;;;;;;5045117;28;19927;-70
2022/09/30 02:02:20;;;;;;;;;;;9.90;89.20;;;;;;5044998;28;19916;-70
2022/09/30 02:04:56;;;;;;;;;;;9.90;89.10;;;;;;5049441;28;19960;-70
2022/09/30 02:07:24;;;;;;;;;;;9.90;89.10;;;;;;5046844;28;19927;-70
2022/09/30 02:09:56;;;;;;;;;;;9.90;89.10;;;;;;5044493;28;19917;-70
2022/09/30 02:12:25;;;;;;;;;;;9.90;89.10;;;;;;5046523;28;19917;-70
2022/09/30 02:14:54;;;;;;;;;;;9.90;89.10;;;;;;5043728;28;19917;-71
2022/09/30 02:17:23;;;;;;;;;;;9.90;89.10;;;;;;5046763;28;20373;-70
2022/09/30 02:20:07;;;;;;;;;;;9.90;89.10;;;;;;5044102;28;19924;-70
2022/09/30 02:22:42;;;;;;;;;;;9.90;89.10;;;;;;5046811;28;20336;-70
2022/09/30 02:25:09;;;;;;;;;;;9.90;89.10;;;;;;5044841;28;20889;-70
2022/09/30 02:27:41;;;;;;;;;;;9.80;89.00;;;;;;5045491;28;19920;-70
2022/09/30 02:30:08;;;;;;;;;;;9.80;89.00;;;;;;5044225;28;19923;-70
2022/09/30 02:32:37;;;;;;;;;;;9.80;89.00;;;;;;5046539;28;19909;-70
2022/09/30 02:35:06;;;;;;;;;;;9.80;89.10;;;;;;5044203;28;19925;-70
2022/09/30 02:37:34;;;;;;;;;;;9.80;89.00;;;;;;5044306;28;19925;-70
2022/09/30 02:40:05;;;;;;;;;;;9.80;89.10;;;;;;5044344;28;19936;-71
2022/09/30 02:42:31;;;;;;;;;;;9.80;89.10;;;;;;5046587;28;19962;-70
2022/09/30 02:45:01;;;;;;;;;;;9.80;89.00;;;;;;5044010;28;19970;-70
2022/09/30 02:47:36;;;;;;;;;;;9.80;89.00;;;;;;5046570;28;20695;-70
2022/09/30 02:50:01;;;;;;;;;;;9.70;88.90;;;;;;5047924;28;19919;-71
2022/09/30 02:52:39;;;;;;;;;;;9.80;89.00;;;;;;5045496;28;19913;-70
2022/09/30 02:55:26;;;;;;;;;;;9.70;88.90;;;;;;5044296;28;19913;-71
2022/09/30 02:58:08;;;;;;;;;;;9.70;88.90;;;;;;5044840;28;20388;-70
2022/09/30 03:00:33;;;;;;;;;;;9.70;88.90;;;;;;5043464;28;20262;-71
2022/09/30 03:03:01;;;;;;;;;;;9.70;88.90;;;;;;5046086;28;19919;-71
2022/09/30 03:05:28;;;;;;;;;;;9.70;88.90;;;;;;5030124;28;20575;-70
2022/09/30 03:07:54;;;;;;;;;;;9.70;88.80;;;;;;5045075;28;20377;-71
2022/09/30 03:10:19;;;;;;;;;;;9.60;88.80;;;;;;5045474;28;19919;-70
2022/09/30 03:12:48;;;;;;;;;;;9.60;88.80;;;;;;5046464;28;19917;-70
2022/09/30 03:15:22;;;;;;;;;;;9.60;88.70;;;;;;5045803;28;19959;-70
2022/09/30 03:17:48;;;;;;;;;;;9.70;88.80;;;;;;5041984;28;19917;-70
2022/09/30 03:20:32;;;;;;;;;;;9.60;88.80;;;;;;5046612;28;19913;-70
2022/09/30 03:22:57;;;;;;;;;;;9.60;88.80;;;;;;5043681;28;19924;-71
2022/09/30 03:25:29;;;;;;;;;;;9.60;88.80;;;;;;5045032;28;20277;-70
2022/09/30 03:28:13;;;;;;;;;;;9.60;88.70;;;;;;5043398;28;19952;-70
2022/09/30 03:30:47;;;;;;;;;;;9.60;88.80;;;;;;5047226;28;19912;-71
2022/09/30 03:33:24;;;;;;;;;;;9.60;88.70;;;;;;5043288;28;20678;-70
2022/09/30 03:36:19;;;;;;;;;;;9.60;88.70;;;;;;5044943;28;20011;-70
2022/09/30 03:39:00;;;;;;;;;;;9.60;88.80;;;;;;5029363;28;20309;-70
2022/09/30 03:41:41;;;;;;;;;;;9.50;88.70;;;;;;5044804;28;20519;-70
2022/09/30 03:44:39;;;;;;;;;;;9.50;88.70;;;;;;5042642;28;19917;-70
2022/09/30 03:47:07;;;;;;;;;;;9.50;88.70;;;;;;5008968;28;20002;-71
2022/09/30 03:49:41;;;;;;;;;;;9.50;88.60;;;;;;5047210;28;19966;-70
2022/09/30 03:52:09;;;;;;;;;;;9.50;88.60;;;;;;5045036;28;21662;-70
2022/09/30 03:54:44;;;;;;;;;;;9.50;88.60;;;;;;5029758;28;19912;-70
2022/09/30 03:57:09;;;;;;;;;;;9.50;88.60;;;;;;5045310;28;20024;-70
2022/09/30 03:59:34;;;;;;;;;;;9.50;88.60;;;;;;5042412;28;20031;-70
2022/09/30 04:02:00;;;;;;;;;;;9.40;88.60;;;;;;5044761;28;19923;-71
2022/09/30 04:04:26;;;;;;;;;;;9.40;88.60;;;;;;5042700;28;20373;-70
2022/09/30 04:06:51;;;;;;;;;;;9.40;88.60;;;;;;5044974;28;19927;-70
2022/09/30 04:09:16;;;;;;;;;;;9.40;88.60;;;;;;5042881;28;20579;-71
2022/09/30 04:11:42;;;;;;;;;;;9.40;88.60;;;;;;5044990;28;19920;-70
2022/09/30 04:14:07;;;;;;;;;;;9.40;88.60;;;;;;5046951;28;20388;-70
2022/09/30 04:16:33;;;;;;;;;;;9.40;88.60;;;;;;5044977;28;19961;-70
2022/09/30 04:18:58;;;;;;;;;;;9.40;88.60;;;;;;5042975;28;20278;-70
2022/09/30 04:21:27;;;;;;;;;;;9.40;88.50;;;;;;5045394;28;19944;-70
2022/09/30 04:23:53;;;;;;;;;;;9.40;88.50;;;;;;5042409;28;19916;-70
2022/09/30 04:26:19;;;;;;;;;;;9.40;88.50;;;;;;5043707;28;19913;-70
2022/09/30 04:28:45;;;;;;;;;;;9.30;88.40;;;;;;5042397;28;19916;-70
2022/09/30 04:31:11;;;;;;;;;;;9.30;88.50;;;;;;5043937;28;19912;-70
2022/09/30 04:33:36;;;;;;;;;;;9.40;88.40;;;;;;5044045;28;19958;-70
2022/09/30 04:36:02;;;;;;;;;;;9.40;88.40;;;;;;5042732;28;19952;-71
2022/09/30 04:38:28;;;;;;;;;;;9.30;88.50;;;;;;5044794;28;20775;-70
2022/09/30 04:40:54;;;;;;;;;;;9.30;88.40;;;;;;5042222;28;19977;-71
2022/09/30 04:43:22;;;;;;;;;;;9.30;88.40;;;;;;5045858;28;20608;-71
2022/09/30 04:45:48;;;;;;;;;;;9.30;88.40;;;;;;5041764;28;20356;-71
2022/09/30 04:48:15;;;;;;;;;;;9.30;88.40;;;;;;5043285;28;20077;-70
2022/09/30 04:50:41;;;;;;;;;;;9.30;88.40;;;;;;5043683;28;19987;-71
2022/09/30 04:53:07;;;;;;;;;;;9.30;88.40;;;;;;5048388;28;19909;-71
2022/09/30 04:55:33;;;;;;;;;;;9.30;88.40;;;;;;5045398;28;19960;-70
2022/09/30 04:57:59;;;;;;;;;;;9.30;88.40;;;;;;5048440;28;20777;-71
2022/09/30 05:00:24;;;;;;;;;;;9.20;88.40;;;;;;5029395;28;20316;-71
2022/09/30 05:02:50;;;;;;;;;;;9.20;88.30;;;;;;5047663;28;20034;-70
2022/09/30 05:05:16;;;;;;;;;;;9.20;88.30;;;;;;5027401;28;19963;-70
2022/09/30 05:07:42;;;;;;;;;;;9.20;88.30;;;;;;5029626;28;19921;-70
2022/09/30 05:10:09;;;;;;;;;;;9.20;88.30;;;;;;5047897;28;19920;-70
2022/09/30 05:12:34;;;;;;;;;;;9.20;88.40;;;;;;5049284;28;19919;-70
2022/09/30 05:15:00;;;;;;;;;;;9.20;88.40;;;;;;5047048;28;19920;-70
2022/09/30 05:17:28;;;;;;;;;;;9.20;88.40;;;;;;5045860;28;20305;-71
2022/09/30 05:19:53;;;;;;;;;;;9.20;88.30;;;;;;5051239;28;20036;-71
2022/09/30 05:22:19;;;;;;;;;;;9.20;88.30;;;;;;5045202;28;20550;-70
2022/09/30 05:24:44;;;;;;;;;;;9.20;88.30;;;;;;5048006;28;19974;-70
2022/09/30 05:27:10;;;;;;;;;;;9.10;88.30;;;;;;5045241;28;19920;-70
2022/09/30 05:29:35;;;;;;;;;;;9.10;88.30;;;;;;5053673;28;19919;-71
2022/09/30 05:32:01;;;;;;;;;;;9.10;88.30;;;;;;5045194;28;19920;-71
2022/09/30 05:34:26;;;;;;;;;;;9.10;88.30;;;;;;5047588;28;19908;-70
2022/09/30 05:36:52;;;;;;;;;;;9.10;88.30;;;;;;5047293;28;20621;-70
2022/09/30 05:39:17;;;;;;;;;;;9.10;88.30;;;;;;5047506;28;19921;-70
2022/09/30 05:41:43;;;;;;;;;;;9.10;88.30;;;;;;5044998;28;20523;-71
2022/09/30 05:44:09;;;;;;;;;;;9.10;88.30;;;;;;5047785;28;19954;-70
2022/09/30 05:46:34;;;;;;;;;;;9.10;88.30;;;;;;5046706;28;20005;-70
2022/09/30 05:49:00;;;;;;;;;;;9.10;88.30;;;;;;5045443;28;20031;-70
2022/09/30 05:51:25;;;;;;;;;;;9.10;88.30;;;;;;5047145;28;19912;-70
2022/09/30 05:53:51;;;;;;;;;;;9.10;88.30;;;;;;5044967;28;19932;-71
2022/09/30 05:56:16;;;;;;;;;;;9.10;88.30;;;;;;5047189;28;19913;-71
2022/09/30 05:58:42;;;;;;;;;;;9.10;88.30;;;;;;5045337;28;19920;-70
2022/09/30 06:01:09;;;;;;;;;;;9.10;88.30;;;;;;5048682;28;20082;-70
2022/09/30 06:03:35;;;;;;;;;;;9.10;88.30;;;;;;5046493;28;20012;-70
2022/09/30 06:06:00;;;;;;;;;;;9.10;88.20;;;;;;5046777;28;19919;-71
2022/09/30 06:08:26;;;;;;;;;;;9.10;88.20;;;;;;5044623;28;19920;-71
2022/09/30 06:10:51;;;;;;;;;;;9.10;88.20;;;;;;5046626;28;19920;-70
2022/09/30 06:13:17;;;;;;;;;;;9.10;88.20;;;;;;5044324;28;19916;-70
2022/09/30 06:15:43;;;;;;;;;;;9.10;88.20;;;;;;5048271;28;19919;-70
2022/09/30 06:18:09;;;;;;;;;;;9.10;88.20;;;;;;5045106;28;19942;-70
2022/09/30 06:20:37;;;;;;;;;;;9.10;88.20;;;;;;5048514;28;19908;-70
2022/09/30 06:23:03;;;;;;;;;;;9.10;88.20;;;;;;5029280;28;20526;-70
2022/09/30 06:25:29;;;;;;;;;;;9.10;88.20;;;;;;5046173;28;19996;-70
2022/09/30 06:27:55;;;;;;;;;;;9.10;88.20;;;;;;5046977;28;19917;-70
2022/09/30 06:30:21;;;;;;;;;;;9.10;88.30;;;;;;5044201;28;20003;-70
2022/09/30 06:32:46;;;;;;;;;;;9.10;88.30;;;;;;5047515;28;20293;-70
2022/09/30 06:35:12;;;;;;;;;;;9.00;88.30;;;;;;5043743;28;19920;-70
2022/09/30 06:37:37;;;;;;;;;;;9.10;88.30;;;;;;5046570;28;20398;-70
2022/09/30 06:40:04;;;;;;;;;;;9.10;88.20;;;;;;5047114;28;20663;-70
2022/09/30 06:42:29;;;;;;;;;;;9.10;88.30;;;;;;5031735;28;19912;-70
2022/09/30 06:44:55;;;;;;;;;;;9.10;88.20;;;;;;5044387;28;19924;-70
2022/09/30 06:47:20;;;;;;;;;;;9.10;88.30;;;;;;5046295;28;19963;-70
2022/09/30 06:49:46;;;;;;;;;;;9.10;88.40;;;;;;5043264;28;19913;-70
2022/09/30 06:52:12;;;;;;;;;;;9.10;88.40;;;;;;5048089;28;19924;-71
2022/09/30 06:54:42;;;;;;;;;;;9.10;88.30;;;;;;5043997;28;20007;-71
2022/09/30 06:57:08;;;;;;;;;;;9.10;88.40;;;;;;5045883;28;19913;-70
2022/09/30 06:59:33;;;;;;;;;;;9.10;88.40;;;;;;5043711;28;19948;-70
2022/09/30 07:01:59;;;;;;;;;;;9.10;88.50;;;;;;5045707;28;20683;-71
2022/09/30 07:04:24;;;;;;;;;;;9.10;88.50;;;;;;5045852;28;19913;-70
2022/09/30 07:06:50;;;;;;;;;;;9.10;88.60;;;;;;5043037;28;20611;-70
2022/09/30 07:09:16;;;;;;;;;;;9.10;88.60;;;;;;5045861;28;19948;-70
2022/09/30 07:11:42;;;;;;;;;;;9.10;88.70;;;;;;5043365;28;19944;-70
2022/09/30 07:14:09;;;;;;;;;;;9.10;88.70;;;;;;5044834;28;19912;-71
2022/09/30 07:16:34;;;;;;;;;;;9.10;88.70;;;;;;5042890;28;19919;-70
2022/09/30 07:19:00;;;;;;;;;;;9.10;88.60;;;;;;5046899;28;19916;-70
2022/09/30 07:21:26;;;;;;;;;;;9.10;88.70;;;;;;5044086;28;19917;-70
2022/09/30 07:23:53;;;;;;;;;;;9.10;88.80;;;;;;5046691;28;20786;-70
2022/09/30 07:26:20;;;;;;;;;;;9.10;88.80;;;;;;5041880;28;19923;-70
2022/09/30 07:28:46;;;;;;;;;;;9.10;88.90;;;;;;5045960;28;19912;-70
2022/09/30 07:31:14;;;;;;;;;;;9.20;88.90;;;;;;5043156;28;20028;-70
2022/09/30 07:33:40;;;;;;;;;;;9.10;88.90;;;;;;5045387;28;19912;-70
2022/09/30 07:36:07;;;;;;;;;;;9.20;88.90;;;;;;5044184;28;20602;-70
2022/09/30 07:38:34;;;;;;;;;;;9.20;88.80;;;;;;5045829;28;19920;-70
2022/09/30 07:41:01;;;;;;;;;;;9.20;88.80;;;;;;5045055;28;19916;-70
2022/09/30 07:43:33;;;;;;;;;;;9.20;88.80;;;;;;5043881;28;20042;-71
2022/09/30 07:46:06;;;;;;;;;;;9.30;88.70;;;;;;5048604;28;19913;-70
2022/09/30 07:51:03;;;;;;;;;;;9.30;88.60;;;;;;5044802;28;19916;-70
2022/09/30 07:53:28;;;;;;;;;;;9.30;88.70;;;;;;5042783;28;20610;-70
2022/09/30 07:55:54;;;;;;;;;;;9.40;88.70;;;;;;5044742;28;19909;-71
2022/09/30 07:58:19;;;;;;;;;;;9.40;88.60;;;;;;5046758;28;19913;-70
2022/09/30 08:00:50;;;;;;;;;;;9.40;88.60;;;;;;5044911;28;19916;-70
2022/09/30 08:03:16;;;;;;;;;;;9.40;88.60;;;;;;5042943;28;19956;-70
2022/09/30 08:05:47;;;;;;;;;;;9.50;88.60;;;;;;5045236;28;19948;-70
2022/09/30 08:08:13;;;;;;;;;;;9.50;88.80;;;;;;5042928;28;19996;-70
2022/09/30 08:10:39;;;;;;;;;;;9.50;89.60;;;;;;5044649;28;20423;-70
2022/09/30 08:13:05;;;;;;;;;;;9.60;88.80;;;;;;5043465;28;20007;-71
2022/09/30 08:15:30;;;;;;;;;;;9.60;88.50;;;;;;5048360;28;19912;-70
2022/09/30 08:17:56;;;;;;;;;;;9.70;88.60;;;;;;5040810;28;19912;-70
2022/09/30 08:20:21;;;;;;;;;;;9.70;89.30;;;;;;5039153;28;19963;-70
2022/09/30 08:22:50;;;;;;;;;;;9.80;88.50;;;;;;5044968;28;20429;-70
2022/09/30 08:25:16;;;;;;;;;;;9.80;88.30;;;;;;5047902;28;19904;-70
2022/09/30 08:27:41;;;;;;;;;;;9.90;88.60;;;;;;5048948;28;19917;-70
2022/09/30 08:30:07;;;;;;;;;;;9.90;88.30;;;;;;5046483;28;19917;-70
2022/09/30 08:32:33;;;;;;;;;;;9.90;88.30;;;;;;5047892;28;19964;-70
2022/09/30 08:34:58;;;;;;;;;;;9.90;89.90;;;;;;5048263;28;19913;-70
2022/09/30 08:37:24;;;;;;;;;;;10.00;89.60;;;;;;5048395;28;19917;-70
2022/09/30 08:39:49;;;;;;;;;;;10.00;88.30;;;;;;5046940;28;19916;-70
2022/09/30 08:42:34;;;;;;;;;;;10.00;89.90;;;;;;5049429;28;20631;-70
2022/09/30 08:45:09;;;;;;;;;;;10.10;89.20;;;;;;5045242;28;20510;-70
2022/09/30 08:47:37;;;;;;;;;;;10.10;89.40;;;;;;5050065;28;20619;-69
2022/09/30 08:50:21;;;;;;;;;;;10.10;89.20;;;;;;5046380;28;20081;-70
2022/09/30 08:52:50;;;;;;;;;;;10.20;88.90;;;;;;5048387;28;19913;-70
2022/09/30 08:55:23;;;;;;;;;;;10.20;89.00;;;;;;5044866;28;20689;-70
2022/09/30 08:57:49;;;;;;;;;;;10.30;88.50;;;;;;5047156;28;19996;-70
2022/09/30 09:00:15;;;;;;;;;;;10.30;89.10;;;;;;5045804;28;19924;-70
2022/09/30 09:02:49;;;;;;;;;;;10.30;88.70;;;;;;5050214;28;19912;-70
2022/09/30 09:05:24;;;;;;;;;;;10.40;88.80;;;;;;5041309;28;19939;-70
2022/09/30 09:07:50;;;;;;;;;;;10.40;88.40;;;;;;5048383;28;19917;-70
2022/09/30 09:10:28;;;;;;;;;;;10.40;89.10;;;;;;5045645;28;19923;-70
2022/09/30 09:13:12;;;;;;;;;;;10.50;89.00;;;;;;5048259;28;19963;-70
2022/09/30 09:15:45;;;;;;;;;;;10.50;89.00;;;;;;5046662;28;19962;-70
2022/09/30 09:18:26;;;;;;;;;;;10.50;88.40;;;;;;5047874;28;20349;-70
2022/09/30 09:20:59;;;;;;;;;;;10.60;88.60;;;;;;5034204;28;20605;-70
2022/09/30 09:23:27;;;;;;;;;;;10.60;89.10;;;;;;5048108;28;19916;-70
2022/09/30 09:25:54;;;;;;;;;;;10.60;88.40;;;;;;5048233;28;19916;-70
2022/09/30 09:28:25;;;;;;;;;;;10.60;88.50;;;;;;5047920;28;19995;-70
2022/09/30 09:30:53;;;;;;;;;;;10.70;88.30;;;;;;5048664;28;20023;-70
2022/09/30 09:33:21;;;;;;;;;;;10.70;88.40;;;;;;5049553;28;19913;-70
2022/09/30 09:35:47;;;;;;;;;;;10.70;88.70;;;;;;5044533;28;20743;-70
2022/09/30 09:38:24;;;;;;;;;;;10.80;88.20;;;;;;5048026;28;20012;-70
2022/09/30 09:41:08;;;;;;;;;;;10.80;88.60;;;;;;5045128;28;20638;-70
2022/09/30 09:43:44;;;;;;;;;;;10.80;89.00;;;;;;5046994;28;19916;-70
2022/09/30 09:46:19;;;;;;;;;;;10.90;87.90;;;;;;5045039;28;20891;-70
2022/09/30 09:48:45;;;;;;;;;;;10.90;87.80;;;;;;5045516;28;20004;-70
2022/09/30 09:51:11;;;;;;;;;;;11.00;88.00;;;;;;5045326;28;19909;-70
2022/09/30 09:53:48;;;;;;;;;;;11.00;87.70;;;;;;5047587;28;20330;-70
2022/09/30 09:56:17;;;;;;;;;;;11.00;87.60;;;;;;5046419;28;20580;-70
2022/09/30 09:59:02;;;;;;;;;;;11.10;87.60;;;;;;5046903;28;19916;-70
2022/09/30 10:01:32;;;;;;;;;;;11.10;87.70;;;;;;5044534;28;20445;-70
2022/09/30 10:04:10;;;;;;;;;;;11.20;87.90;;;;;;5045188;28;19917;-70
2022/09/30 10:06:56;;;;;;;;;;;11.20;87.80;;;;;;5046388;28;19921;-70
2022/09/30 10:09:22;;;;;;;;;;;11.20;87.90;;;;;;5044633;28;20504;-70
2022/09/30 10:11:48;;;;;;;;;;;11.30;88.00;;;;;;5047093;28;19999;-70
2022/09/30 10:14:19;;;;;;;;;;;11.30;87.60;;;;;;5044761;28;19996;-70
2022/09/30 10:16:45;;;;;;;;;;;11.40;87.30;;;;;;5047004;28;19948;-70
2022/09/30 10:19:27;;;;;;;;;;;11.40;87.40;;;;;;5044964;28;19994;-70
2022/09/30 10:22:08;;;;;;;;;;;11.50;87.70;;;;;;5046295;28;20373;-70
2022/09/30 10:24:38;;;;;;;;;;;11.50;87.20;;;;;;5044443;28;19916;-71
2022/09/30 10:27:04;;;;;;;;;;;11.60;87.30;;;;;;5046737;28;20032;-70
2022/09/30 10:29:31;;;;;;;;;;;11.60;87.60;;;;;;5044849;28;19927;-70
2022/09/30 10:32:01;;;;;;;;;;;11.70;87.40;;;;;;5029435;28;19912;-70
2022/09/30 10:34:32;;;;;;;;;;;11.70;87.00;;;;;;5044699;28;19916;-69
2022/09/30 10:36:59;;;;;;;;;;;11.70;87.50;;;;;;5046295;28;20027;-70
2022/09/30 10:39:26;;;;;;;;;;;11.80;87.20;;;;;;5044613;28;20637;-70
2022/09/30 10:41:59;;;;;;;;;;;11.80;87.50;;;;;;5046318;28;19917;-70
2022/09/30 10:44:26;;;;;;;;;;;11.80;87.70;;;;;;5044526;28;19917;-70
2022/09/30 10:46:57;;;;;;;;;;;11.90;87.30;;;;;;5045752;28;19920;-70
2022/09/30 10:49:29;;;;;;;;;;;12.00;87.90;;;;;;5044385;28;20329;-70
2022/09/30 10:51:55;;;;;;;;;;;12.00;87.70;;;;;;5046012;28;19913;-70
2022/09/30 10:54:39;;;;;;;;;;;12.10;87.50;;;;;;5043554;28;19990;-70
2022/09/30 10:57:11;;;;;;;;;;;12.10;87.60;;;;;;5044719;28;19913;-70
2022/09/30 10:59:37;;;;;;;;;;;12.20;87.20;;;;;;5044354;28;19925;-70
2022/09/30 11:02:12;;;;;;;;;;;12.30;87.50;;;;;;5045762;28;19920;-70
2022/09/30 11:04:49;;;;;;;;;;;12.30;87.70;;;;;;5043206;28;19916;-70
2022/09/30 11:07:28;;;;;;;;;;;12.40;87.20;;;;;;5043725;28;19956;-71
2022/09/30 11:10:02;;;;;;;;;;;12.40;87.50;;;;;;5043337;28;20007;-70
2022/09/30 11:12:40;;;;;;;;;;;12.50;87.40;;;;;;5044625;28;20397;-70
2022/09/30 11:15:12;;;;;;;;;;;12.60;87.40;;;;;;5038655;28;20011;-70
2022/09/30 11:17:37;;;;;;;;;;;12.80;86.70;;;;;;5045109;28;19913;-70
2022/09/30 11:20:14;;;;;;;;;;;12.90;86.70;;;;;;5043946;28;19919;-69
2022/09/30 11:22:50;;;;;;;;;;;12.90;86.70;;;;;;5047426;28;20407;-70
2022/09/30 11:25:35;;;;;;;;;;;12.90;86.80;;;;;;5044011;28;19917;-70
2022/09/30 11:28:20;;;;;;;;;;;13.00;86.90;;;;;;5045738;28;19956;-70
2022/09/30 11:31:07;;;;;;;;;;;13.10;86.50;;;;;;5043532;28;19916;-70
2022/09/30 11:33:38;;;;;;;;;;;13.10;86.50;;;;;;5045796;28;20620;-69
2022/09/30 11:36:27;;;;;;;;;;;13.20;86.40;;;;;;5043506;28;19990;-70
2022/09/30 11:38:56;;;;;;;;;;;13.30;86.10;;;;;;5044935;28;19920;-70
2022/09/30 11:41:29;;;;;;;;;;;13.40;85.60;;;;;;5043106;28;19913;-70
2022/09/30 11:44:13;;;;;;;;;;;13.60;85.60;;;;;;5046133;28;20297;-70
2022/09/30 11:46:41;;;;;;;;;;;13.70;85.70;;;;;;5040347;28;19920;-69
2022/09/30 11:49:27;;;;;;;;;;;13.80;85.00;;;;;;5045283;28;20673;-70
2022/09/30 11:51:52;;;;;;;;;;;13.90;84.90;;;;;;5043026;28;19927;-69
2022/09/30 11:54:17;;;;;;;;;;;14.10;84.90;;;;;;5045154;28;19912;-69
2022/09/30 11:57:12;;;;;;;;;;;14.20;84.80;;;;;;5042648;28;19975;-70
2022/09/30 11:59:49;;;;;;;;;;;14.20;84.30;;;;;;4949795;28;19998;-69
2022/09/30 12:02:18;;;;;;;;;;;14.30;84.10;;;;;;5041849;28;20028;-69
2022/09/30 12:04:44;;;;;;;;;;;14.40;84.10;;;;;;5045129;28;19917;-69
2022/09/30 12:07:10;;;;;;;;;;;14.50;83.80;;;;;;5042569;28;19950;-69
2022/09/30 12:09:36;;;;;;;;;;;14.50;84.40;;;;;;5045108;28;20411;-69
2022/09/30 12:12:01;;;;;;;;;;;14.60;83.60;;;;;;5030027;28;19924;-69
2022/09/30 12:14:33;;;;;;;;;;;14.70;83.70;;;;;;5044262;28;20605;-69
2022/09/30 12:16:59;;;;;;;;;;;14.70;84.00;;;;;;5043077;28;20023;-69
2022/09/30 12:19:42;;;;;;;;;;;14.80;84.30;;;;;;5036670;28;19913;-69
2022/09/30 12:22:20;;;;;;;;;;;14.80;84.40;;;;;;5040969;28;20024;-70
2022/09/30 12:24:46;;;;;;;;;;;14.80;84.90;;;;;;5047109;28;19920;-69
2022/09/30 12:27:22;;;;;;;;;;;14.90;84.40;;;;;;5042495;28;19917;-70
2022/09/30 12:33:09;;;;;;;;;;;15.00;84.70;;;;;;5039833;28;19994;-69
2022/09/30 12:35:36;;;;;;;;;;;15.00;84.60;;;;;;5041961;28;20431;-70
2022/09/30 12:38:09;;;;;;;;;;;15.10;85.10;;;;;;5041899;28;19936;-69
2022/09/30 12:40:35;;;;;;;;;;;15.10;85.10;;;;;;5044356;28;19969;-70
2022/09/30 12:43:03;;;;;;;;;;;15.10;85.00;;;;;;5042478;28;20035;-70
2022/09/30 12:45:40;;;;;;;;;;;15.10;84.90;;;;;;5043293;28;19917;-69
2022/09/30 12:48:07;;;;;;;;;;;15.20;84.90;;;;;;5042744;28;19917;-69
2022/09/30 12:50:39;;;;;;;;;;;15.30;84.80;;;;;;5044850;28;20518;-69
2022/09/30 12:53:16;;;;;;;;;;;15.30;85.40;;;;;;5043669;28;19920;-70
2022/09/30 12:55:42;;;;;;;;;;;15.30;85.70;;;;;;5044474;28;20393;-69
2022/09/30 12:58:19;;;;;;;;;;;15.40;85.00;;;;;;5044366;28;19912;-69
2022/09/30 13:00:59;;;;;;;;;;;15.40;85.70;;;;;;5044438;28;19912;-69
2022/09/30 13:03:25;;;;;;;;;;;15.50;86.00;;;;;;5043741;28;19909;-69
2022/09/30 13:05:52;;;;;;;;;;;15.50;85.50;;;;;;5042845;28;20393;-70
2022/09/30 13:08:17;;;;;;;;;;;15.50;86.50;;;;;;5043736;28;20004;-70
2022/09/30 13:10:44;;;;;;;;;;;15.60;86.10;;;;;;5042884;28;20003;-69
2022/09/30 13:13:09;;;;;;;;;;;15.60;86.30;;;;;;5052226;28;20423;-69
2022/09/30 13:15:41;;;;;;;;;;;15.70;85.90;;;;;;5046150;28;19995;-69
2022/09/30 13:18:18;;;;;;;;;;;15.70;87.00;;;;;;5048121;28;19913;-70
2022/09/30 13:20:56;;;;;;;;;;;15.70;86.90;;;;;;5045833;28;19924;-70
2022/09/30 13:23:40;;;;;;;;;;;15.70;86.50;;;;;;5047557;28;19915;-69
2022/09/30 13:26:21;;;;;;;;;;;15.80;86.40;;;;;;5045617;28;20011;-70
2022/09/30 13:28:46;;;;;;;;;;;15.80;86.00;;;;;;5047853;28;19917;-69
2022/09/30 13:31:14;;;;;;;;;;;15.90;86.80;;;;;;5048150;28;20639;-70
2022/09/30 13:33:41;;;;;;;;;;;15.90;86.40;;;;;;5047791;28;19909;-70
2022/09/30 13:36:15;;;;;;;;;;;15.90;86.10;;;;;;5045860;28;19920;-70
2022/09/30 13:38:41;;;;;;;;;;;15.90;86.20;;;;;;5048866;28;19924;-69
2022/09/30 13:41:06;;;;;;;;;;;16.00;84.90;;;;;;5045392;28;19917;-69
2022/09/30 13:43:35;;;;;;;;;;;15.90;86.20;;;;;;5047397;28;19917;-70
2022/09/30 13:46:10;;;;;;;;;;;15.90;85.60;;;;;;5045328;28;20457;-70
2022/09/30 13:48:39;;;;;;;;;;;16.00;86.10;;;;;;5046593;28;19936;-69
2022/09/30 13:51:07;;;;;;;;;;;16.00;85.80;;;;;;5044342;28;19917;-69
2022/09/30 13:53:39;;;;;;;;;;;16.10;84.40;;;;;;5047906;28;19990;-70
2022/09/30 13:56:27;;;;;;;;;;;16.00;86.70;;;;;;5044566;28;20027;-69
2022/09/30 13:59:12;;;;;;;;;;;16.10;85.60;;;;;;5039020;28;19913;-70
2022/09/30 14:01:41;;;;;;;;;;;16.00;85.30;;;;;;5046013;28;19928;-70
2022/09/30 14:04:24;;;;;;;;;;;16.00;85.50;;;;;;5052789;28;20247;-70
2022/09/30 14:07:10;;;;;;;;;;;16.00;85.60;;;;;;5039212;28;20380;-70
2022/09/30 14:09:36;;;;;;;;;;;16.00;85.30;;;;;;5047314;28;19913;-70
2022/09/30 14:12:12;;;;;;;;;;;15.90;86.40;;;;;;5046018;28;20011;-70
2022/09/30 14:14:59;;;;;;;;;;;15.90;85.40;;;;;;5046077;28;19913;-69
2022/09/30 14:17:38;;;;;;;;;;;16.00;86.40;;;;;;5043884;28;19978;-70
2022/09/30 14:20:27;;;;;;;;;;;16.00;86.00;;;;;;5047308;28;19913;-70
2022/09/30 14:22:53;;;;;;;;;;;16.00;86.10;;;;;;5044199;28;19924;-70
2022/09/30 14:25:20;;;;;;;;;;;16.00;85.20;;;;;;5046985;28;19913;-69
2022/09/30 14:27:57;;;;;;;;;;;16.00;85.60;;;;;;5029463;28;19921;-70
2022/09/30 14:30:23;;;;;;;;;;;16.00;85.60;;;;;;5046953;28;19912;-70
2022/09/30 14:32:53;;;;;;;;;;;16.00;85.60;;;;;;5043658;28;20346;-70
2022/09/30 14:35:27;;;;;;;;;;;16.00;84.90;;;;;;5046316;28;19931;-70
2022/09/30 14:38:02;;;;;;;;;;;16.00;85.40;;;;;;5048287;28;19921;-70
2022/09/30 14:40:39;;;;;;;;;;;16.00;85.40;;;;;;5046292;28;19913;-69
2022/09/30 14:43:06;;;;;;;;;;;16.00;84.80;;;;;;5044829;28;19916;-69
2022/09/30 14:45:33;;;;;;;;;;;16.00;84.40;;;;;;5035762;28;20418;-70
2022/09/30 14:48:01;;;;;;;;;;;16.10;85.30;;;;;;5039616;28;19928;-70